Time;durP1;ratioP1;P1;durP2;ratioP2;P2;SDS_P1;SDS_P2;PMS_P1;PMS_P2;Temp;Humidity;BMP_temperature;BMP_pressure;BME280_temperature;BME280_humidity;BME280_pressure;Samples;Min_cycle;Max_cycle;Signal;HPM_P1;HPM_P2
2023/02/17 00:01:14;;;;;;;3.40;3.10;;;8.60;95.50;;;;;;5111394;28;20318;-69
2023/02/17 00:03:40;;;;;;;3.60;2.72;;;8.60;95.50;;;;;;5111319;28;20198;-72
2023/02/17 00:06:08;;;;;;;3.78;2.90;;;8.50;95.60;;;;;;5110577;28;20202;-73
2023/02/17 00:08:35;;;;;;;3.33;2.65;;;8.40;95.80;;;;;;5110784;28;20203;-73
2023/02/17 00:11:02;;;;;;;2.90;2.45;;;8.40;95.90;;;;;;5111335;28;20215;-72
2023/02/17 00:13:29;;;;;;;5.03;3.20;;;8.40;96.10;;;;;;5111009;28;20203;-71
2023/02/17 00:15:56;;;;;;;3.22;2.47;;;8.40;96.10;;;;;;5110849;28;20203;-72
2023/02/17 00:18:24;;;;;;;3.50;2.40;;;8.40;96.10;;;;;;5111140;28;20199;-72
2023/02/17 00:20:51;;;;;;;5.15;3.75;;;8.30;96.20;;;;;;5111053;28;20662;-72
2023/02/17 00:23:18;;;;;;;3.40;2.85;;;8.30;96.20;;;;;;5110902;28;20628;-72
2023/02/17 00:25:45;;;;;;;4.18;3.22;;;8.30;96.40;;;;;;5108537;28;20222;-73
2023/02/17 00:28:11;;;;;;;4.35;2.65;;;8.20;96.50;;;;;;5110872;28;20211;-73
2023/02/17 00:30:38;;;;;;;9.63;2.50;;;8.10;96.80;;;;;;5106723;28;20234;-72
2023/02/17 00:33:05;;;;;;;3.35;2.75;;;8.10;96.60;;;;;;5110635;28;20282;-72
2023/02/17 00:35:33;;;;;;;5.13;2.88;;;8.00;97.00;;;;;;5110397;28;20549;-72
2023/02/17 00:38:00;;;;;;;3.30;2.90;;;7.90;97.10;;;;;;5110862;28;20218;-72
2023/02/17 00:40:27;;;;;;;5.63;3.28;;;7.90;97.20;;;;;;5110618;28;20195;-72
2023/02/17 00:42:54;;;;;;;3.40;3.10;;;7.90;97.40;;;;;;5110632;28;20276;-73
2023/02/17 00:45:21;;;;;;;4.65;3.05;;;7.90;97.60;;;;;;5110465;28;20293;-72
2023/02/17 00:47:48;;;;;;;2.83;2.50;;;7.90;97.80;;;;;;5111096;28;20284;-72
2023/02/17 00:50:14;;;;;;;3.35;2.60;;;8.00;98.00;;;;;;5110339;28;20225;-72
2023/02/17 00:52:42;;;;;;;2.58;2.33;;;8.00;97.90;;;;;;5110731;28;20260;-73
2023/02/17 00:55:09;;;;;;;3.10;2.80;;;8.00;98.00;;;;;;5110418;28;20199;-73
2023/02/17 00:57:36;;;;;;;4.18;2.35;;;8.10;98.10;;;;;;5110547;28;20215;-72
2023/02/17 01:00:04;;;;;;;3.45;2.53;;;8.10;98.10;;;;;;5110496;28;20244;-73
2023/02/17 01:02:30;;;;;;;4.80;2.92;;;8.10;98.20;;;;;;5110395;28;20206;-72
2023/02/17 01:04:57;;;;;;;5.50;3.10;;;8.10;98.30;;;;;;5110876;28;20323;-72
2023/02/17 01:07:23;;;;;;;4.90;4.35;;;8.00;98.30;;;;;;5109968;28;20272;-72
2023/02/17 01:09:51;;;;;;;3.33;2.90;;;7.90;98.40;;;;;;5110518;28;20219;-72
2023/02/17 01:12:18;;;;;;;4.32;3.25;;;7.90;98.40;;;;;;5110214;28;20203;-72
2023/02/17 01:14:45;;;;;;;4.78;3.35;;;7.80;98.50;;;;;;5110608;28;20203;-72
2023/02/17 01:17:11;;;;;;;4.32;2.70;;;7.80;98.60;;;;;;5112020;28;20223;-72
2023/02/17 01:19:38;;;;;;;6.47;2.45;;;7.80;98.80;;;;;;5114448;28;20199;-72
2023/02/17 01:22:05;;;;;;;3.88;3.47;;;7.80;98.90;;;;;;5114462;28;20203;-72
2023/02/17 01:24:31;;;;;;;3.10;2.80;;;7.80;98.90;;;;;;5114064;28;20211;-72
2023/02/17 01:26:59;;;;;;;4.65;3.15;;;7.80;98.90;;;;;;5113998;28;20219;-71
2023/02/17 01:29:26;;;;;;;2.90;2.60;;;7.80;99.10;;;;;;5113763;28;20195;-72
2023/02/17 01:31:53;;;;;;;4.50;2.53;;;7.70;99.20;;;;;;5107229;28;20199;-72
2023/02/17 01:34:20;;;;;;;4.10;2.35;;;7.80;99.50;;;;;;5113975;28;20191;-72
2023/02/17 01:36:46;;;;;;;2.80;2.20;;;7.90;99.40;;;;;;5113548;28;20219;-72
2023/02/17 01:39:14;;;;;;;2.67;2.33;;;7.90;99.40;;;;;;5113920;28;20206;-73
2023/02/17 01:41:41;;;;;;;4.75;2.65;;;7.90;99.50;;;;;;5111632;27;20290;-72
2023/02/17 01:44:13;;;;;;;3.30;2.97;;;8.00;99.50;;;;;;5113954;28;20241;-72
2023/02/17 01:46:42;;;;;;;3.00;2.55;;;8.10;99.50;;;;;;5113212;28;20218;-72
2023/02/17 01:49:30;;;;;;;7.68;2.92;;;8.10;99.30;;;;;;5113776;28;20203;-73
2023/02/17 01:52:03;;;;;;;4.88;2.20;;;8.20;99.30;;;;;;5113705;28;20229;-72
2023/02/17 01:54:35;;;;;;;2.75;2.40;;;8.20;99.30;;;;;;5113730;27;20256;-72
2023/02/17 01:57:03;;;;;;;2.67;2.20;;;8.20;99.20;;;;;;5113295;27;20211;-72
2023/02/17 01:59:32;;;;;;;3.13;2.60;;;8.30;99.20;;;;;;5113249;28;20198;-73
2023/02/17 02:02:03;;;;;;;3.17;2.88;;;8.30;99.20;;;;;;5113703;27;20202;-72
2023/02/17 02:04:33;;;;;;;2.67;2.28;;;8.30;99.10;;;;;;5113417;28;20203;-73
2023/02/17 02:07:00;;;;;;;4.32;2.25;;;8.30;99.10;;;;;;5113371;28;20786;-72
2023/02/17 02:09:32;;;;;;;2.20;2.00;;;8.30;99.00;;;;;;5112831;28;20199;-72
2023/02/17 02:11:59;;;;;;;8.07;2.80;;;8.30;99.30;;;;;;5113521;28;20203;-72
2023/02/17 02:14:26;;;;;;;3.15;2.03;;;8.40;99.00;;;;;;5113377;28;20429;-73
2023/02/17 02:17:01;;;;;;;3.35;2.05;;;8.40;98.90;;;;;;5113057;27;20587;-73
2023/02/17 02:19:51;;;;;;;3.00;2.70;;;8.40;98.90;;;;;;5113065;28;20198;-73
2023/02/17 02:22:33;;;;;;;7.35;2.67;;;8.40;98.90;;;;;;5113026;28;20199;-73
2023/02/17 02:25:15;;;;;;;3.17;2.63;;;8.40;98.90;;;;;;5113271;28;20244;-72
2023/02/17 02:27:53;;;;;;;2.83;2.55;;;8.40;98.80;;;;;;5111050;27;20284;-72
2023/02/17 02:30:43;;;;;;;2.92;2.13;;;8.40;98.80;;;;;;5112661;28;20607;-72
2023/02/17 02:33:17;;;;;;;3.15;2.40;;;8.40;98.60;;;;;;5112888;28;20210;-72
2023/02/17 02:35:52;;;;;;;2.45;2.25;;;8.50;98.70;;;;;;5112843;28;20198;-73
2023/02/17 02:38:24;;;;;;;2.15;1.92;;;8.40;98.60;;;;;;5112865;28;20203;-73
2023/02/17 02:40:55;;;;;;;3.40;2.47;;;8.40;98.60;;;;;;5112717;27;20252;-72
2023/02/17 02:43:23;;;;;;;4.85;2.47;;;8.40;98.60;;;;;;5112537;28;20198;-72
2023/02/17 02:45:50;;;;;;;2.28;2.08;;;8.50;98.60;;;;;;5112628;27;20256;-73
2023/02/17 02:48:18;;;;;;;2.92;2.20;;;8.50;98.60;;;;;;5112688;28;20280;-72
2023/02/17 02:50:59;;;;;;;4.47;2.45;;;8.50;98.50;;;;;;5112395;28;20641;-72
2023/02/17 02:53:39;;;;;;;3.55;2.40;;;8.50;98.60;;;;;;5112625;28;20240;-70
2023/02/17 02:56:13;;;;;;;2.72;2.30;;;8.50;98.50;;;;;;5112139;28;20259;-70
2023/02/17 02:58:49;;;;;;;2.72;2.20;;;8.50;98.60;;;;;;5112853;28;20265;-73
2023/02/17 03:01:22;;;;;;;2.45;2.20;;;8.50;98.60;;;;;;5112185;28;20194;-73
2023/02/17 03:04:04;;;;;;;2.55;2.35;;;8.50;98.60;;;;;;5112761;28;20268;-72
2023/02/17 03:06:39;;;;;;;3.78;2.40;;;8.60;98.60;;;;;;5111726;28;20346;-72
2023/02/17 03:09:11;;;;;;;3.50;3.08;;;8.50;98.60;;;;;;5112236;28;20202;-73
2023/02/17 03:11:38;;;;;;;3.95;2.38;;;8.50;98.70;;;;;;5112298;28;20263;-72
2023/02/17 03:14:07;;;;;;;2.40;2.20;;;8.50;98.70;;;;;;5112109;27;20203;-72
2023/02/17 03:16:35;;;;;;;3.63;2.38;;;8.40;98.70;;;;;;5111760;28;20227;-71
2023/02/17 03:19:04;;;;;;;3.30;1.85;;;8.40;98.90;;;;;;5111850;28;20203;-69
2023/02/17 03:21:35;;;;;;;4.25;2.67;;;8.40;98.90;;;;;;5111938;28;20206;-71
2023/02/17 03:24:02;;;;;;;4.85;2.70;;;8.40;98.90;;;;;;5111595;28;20260;-70
2023/02/17 03:26:29;;;;;;;4.88;2.50;;;8.40;99.00;;;;;;5111521;28;20263;-69
2023/02/17 03:28:55;;;;;;;3.78;2.22;;;8.50;99.10;;;;;;5111901;28;20203;-73
2023/02/17 03:31:22;;;;;;;3.28;2.60;;;8.40;99.00;;;;;;5111698;28;20219;-72
2023/02/17 03:33:49;;;;;;;2.80;2.42;;;8.40;99.00;;;;;;5112052;28;20290;-71
2023/02/17 03:36:17;;;;;;;2.50;2.00;;;8.40;99.10;;;;;;5111119;28;20223;-71
2023/02/17 03:38:44;;;;;;;3.47;2.40;;;8.40;99.20;;;;;;5111307;28;20739;-71
2023/02/17 03:41:11;;;;;;;2.53;2.22;;;8.40;99.30;;;;;;5112074;28;20206;-72
2023/02/17 03:43:38;;;;;;;3.50;2.80;;;8.40;99.20;;;;;;5111828;28;20294;-71
2023/02/17 03:46:04;;;;;;;2.67;2.33;;;8.40;99.20;;;;;;5111320;28;20199;-73
2023/02/17 03:48:31;;;;;;;4.32;2.67;;;8.40;99.20;;;;;;5111270;28;20252;-72
2023/02/17 03:50:58;;;;;;;3.35;2.35;;;8.40;99.20;;;;;;5111438;28;20271;-72
2023/02/17 03:53:26;;;;;;;3.97;2.90;;;8.50;99.10;;;;;;5111500;28;20198;-71
2023/02/17 03:55:52;;;;;;;2.95;2.42;;;8.50;99.20;;;;;;5111193;28;20195;-71
2023/02/17 03:58:19;;;;;;;2.08;1.88;;;8.50;99.20;;;;;;5111284;28;20233;-73
2023/02/17 04:00:45;;;;;;;3.45;2.65;;;8.50;99.20;;;;;;5111537;28;20256;-72
2023/02/17 04:03:12;;;;;;;2.72;2.30;;;8.40;99.10;;;;;;5111521;28;20606;-72
2023/02/17 04:05:39;;;;;;;3.40;2.10;;;8.40;99.10;;;;;;5110760;28;20617;-72
2023/02/17 04:08:05;;;;;;;3.15;2.80;;;8.50;99.50;;;;;;5111446;28;20715;-72
2023/02/17 04:10:33;;;;;;;2.58;2.38;;;8.50;99.30;;;;;;5110633;28;20693;-72
2023/02/17 04:13:00;;;;;;;3.55;2.92;;;8.40;99.30;;;;;;5110986;28;20674;-72
2023/02/17 04:15:28;;;;;;;2.95;2.13;;;8.40;99.30;;;;;;5110516;28;20610;-72
2023/02/17 04:17:55;;;;;;;3.97;2.63;;;8.40;99.30;;;;;;5111275;28;20316;-72
2023/02/17 04:20:22;;;;;;;3.45;2.90;;;8.40;99.40;;;;;;5110945;28;20198;-71
2023/02/17 04:22:48;;;;;;;5.40;2.40;;;8.40;99.40;;;;;;5110875;28;20206;-72
2023/02/17 04:25:15;;;;;;;3.90;2.40;;;8.60;99.40;;;;;;5111344;28;20198;-72
2023/02/17 04:27:43;;;;;;;8.50;2.85;;;8.60;99.40;;;;;;5110622;28;20223;-72
2023/02/17 04:30:11;;;;;;;2.92;2.33;;;8.60;99.40;;;;;;5110688;28;20195;-71
2023/02/17 04:32:38;;;;;;;4.35;2.35;;;8.60;99.40;;;;;;5110662;28;20202;-72
2023/02/17 04:35:05;;;;;;;2.83;2.40;;;8.70;99.50;;;;;;5110069;28;20198;-71
2023/02/17 04:37:32;;;;;;;3.50;3.20;;;8.70;99.70;;;;;;5109347;28;20218;-71
2023/02/17 04:39:58;;;;;;;2.60;2.00;;;8.70;99.70;;;;;;5110278;28;20195;-71
2023/02/17 04:42:25;;;;;;;2.67;2.42;;;8.70;99.70;;;;;;5110477;28;20198;-71
2023/02/17 04:44:53;;;;;;;2.45;2.08;;;8.80;99.80;;;;;;5109688;28;20674;-72
2023/02/17 04:47:20;;;;;;;3.00;2.45;;;8.80;99.90;;;;;;5109925;28;20758;-71
2023/02/17 04:49:46;;;;;;;2.80;2.25;;;8.80;99.90;;;;;;5110263;28;20727;-72
2023/02/17 04:52:13;;;;;;;2.95;2.75;;;8.80;99.90;;;;;;5113518;28;20256;-72
2023/02/17 04:54:40;;;;;;;3.78;2.15;;;8.90;99.90;;;;;;5114353;28;20222;-71
2023/02/17 04:57:06;;;;;;;5.32;2.50;;;8.90;99.90;;;;;;5113593;28;20721;-72
2023/02/17 04:59:33;;;;;;;5.50;2.70;;;8.90;99.90;;;;;;5113434;28;20618;-72
2023/02/17 05:02:01;;;;;;;8.20;2.97;;;8.90;99.90;;;;;;5113272;28;20666;-72
2023/02/17 05:04:28;;;;;;;3.65;2.53;;;8.90;99.90;;;;;;5113364;28;20203;-72
2023/02/17 05:06:54;;;;;;;2.72;1.80;;;8.90;99.90;;;;;;5113127;28;20219;-72
2023/02/17 05:09:21;;;;;;;3.67;2.70;;;8.90;99.90;;;;;;5110161;28;20615;-71
2023/02/17 05:11:48;;;;;;;2.78;2.53;;;8.90;99.90;;;;;;5113125;28;20636;-72
2023/02/17 05:14:15;;;;;;;3.55;2.30;;;9.00;99.90;;;;;;5112431;28;20270;-71
2023/02/17 05:16:41;;;;;;;3.45;2.65;;;9.10;99.90;;;;;;5112777;28;20309;-72
2023/02/17 05:19:10;;;;;;;3.28;2.58;;;9.10;99.90;;;;;;5109703;27;20251;-71
2023/02/17 05:21:36;;;;;;;4.00;2.67;;;9.00;99.90;;;;;;5110179;27;20249;-71
2023/02/17 05:24:03;;;;;;;5.13;2.80;;;9.10;99.90;;;;;;5108015;28;20453;-73
2023/02/17 05:26:30;;;;;;;4.43;2.70;;;9.10;99.90;;;;;;5112945;28;20223;-72
2023/02/17 05:28:57;;;;;;;3.42;2.80;;;9.10;99.90;;;;;;5106389;28;20827;-72
2023/02/17 05:31:23;;;;;;;2.88;2.58;;;9.10;99.90;;;;;;5106056;28;20237;-73
2023/02/17 05:33:50;;;;;;;4.20;2.40;;;9.10;99.90;;;;;;5105257;28;20199;-73
2023/02/17 05:36:18;;;;;;;5.00;2.70;;;9.10;99.90;;;;;;5104228;28;20218;-73
2023/02/17 05:38:48;;;;;;;4.10;2.67;;;9.10;99.90;;;;;;5113251;28;20245;-72
2023/02/17 05:41:14;;;;;;;2.92;2.15;;;9.10;99.90;;;;;;5113736;28;20207;-72
2023/02/17 05:43:41;;;;;;;2.83;2.45;;;9.10;99.90;;;;;;5114263;28;20210;-72
2023/02/17 05:46:08;;;;;;;2.92;2.55;;;9.10;99.90;;;;;;5113639;28;20252;-72
2023/02/17 05:48:35;;;;;;;2.47;2.15;;;9.20;99.90;;;;;;5113817;28;20256;-73
2023/02/17 05:51:02;;;;;;;3.38;2.53;;;9.20;99.90;;;;;;5114091;28;20219;-73
2023/02/17 05:53:30;;;;;;;3.20;2.90;;;9.10;99.90;;;;;;5113702;28;20210;-72
2023/02/17 05:55:56;;;;;;;5.03;2.65;;;9.20;99.90;;;;;;5113596;28;20199;-73
2023/02/17 05:58:23;;;;;;;2.88;1.95;;;9.20;99.90;;;;;;5113315;28;20211;-73
2023/02/17 06:00:50;;;;;;;2.95;2.08;;;9.20;99.90;;;;;;5113688;27;20229;-73
2023/02/17 06:03:17;;;;;;;2.10;1.90;;;9.20;99.90;;;;;;5110577;28;20200;-73
2023/02/17 06:05:45;;;;;;;3.33;2.47;;;9.30;99.90;;;;;;5106791;28;20654;-73
2023/02/17 06:08:12;;;;;;;4.40;3.33;;;9.30;99.90;;;;;;5111558;28;20585;-73
2023/02/17 06:10:41;;;;;;;4.35;2.55;;;9.30;99.90;;;;;;5100428;28;20214;-72
2023/02/17 06:13:08;;;;;;;2.88;2.67;;;9.30;99.90;;;;;;5102722;28;20651;-72
2023/02/17 06:15:35;;;;;;;2.95;2.55;;;9.40;99.90;;;;;;5101305;28;20204;-74
2023/02/17 06:18:01;;;;;;;4.85;2.78;;;9.40;99.90;;;;;;5112230;27;20215;-73
2023/02/17 06:20:28;;;;;;;6.10;2.67;;;9.40;99.90;;;;;;5102279;28;20207;-73
2023/02/17 06:22:55;;;;;;;4.38;2.65;;;9.40;99.90;;;;;;5102771;28;20200;-73
2023/02/17 06:25:21;;;;;;;6.18;2.35;;;9.40;99.90;;;;;;5096451;28;20208;-72
2023/02/17 06:27:49;;;;;;;2.30;2.10;;;9.50;99.90;;;;;;5105710;28;20215;-72
2023/02/17 06:30:16;;;;;;;3.72;2.40;;;9.50;99.90;;;;;;5110700;28;20191;-73
2023/02/17 06:32:43;;;;;;;3.40;2.35;;;9.50;99.90;;;;;;5104668;28;20271;-72
2023/02/17 06:35:09;;;;;;;3.08;2.35;;;9.40;99.90;;;;;;5103575;28;20278;-74
2023/02/17 06:37:36;;;;;;;2.47;2.22;;;9.40;99.90;;;;;;5103011;28;20698;-73
2023/02/17 06:40:03;;;;;;;2.78;2.00;;;9.40;99.90;;;;;;5111747;28;20335;-73
2023/02/17 06:42:30;;;;;;;2.95;2.65;;;9.40;99.90;;;;;;5098816;28;20196;-73
2023/02/17 06:44:59;;;;;;;3.00;2.45;;;9.40;99.90;;;;;;5109875;28;20204;-73
2023/02/17 06:47:26;;;;;;;4.95;2.30;;;9.50;99.90;;;;;;5112331;28;20222;-72
2023/02/17 06:49:53;;;;;;;3.30;2.15;;;9.40;99.90;;;;;;5112422;28;20199;-72
2023/02/17 06:52:19;;;;;;;4.45;2.47;;;9.40;99.90;;;;;;5112567;28;20226;-73
2023/02/17 06:54:47;;;;;;;5.25;2.80;;;9.40;99.90;;;;;;5112526;28;20199;-73
2023/02/17 06:57:13;;;;;;;2.53;2.30;;;9.30;99.90;;;;;;5112214;28;20322;-73
2023/02/17 06:59:40;;;;;;;4.55;2.70;;;9.30;99.90;;;;;;5112173;28;20259;-73
2023/02/17 07:02:11;;;;;;;3.83;2.65;;;9.40;99.90;;;;;;5112661;28;20198;-73
2023/02/17 07:04:37;;;;;;;3.70;2.33;;;9.30;99.90;;;;;;5112248;28;20264;-73
2023/02/17 07:07:04;;;;;;;6.95;2.80;;;9.30;99.90;;;;;;5112207;28;20265;-73
2023/02/17 07:09:31;;;;;;;2.70;2.50;;;9.30;99.90;;;;;;5112300;28;20199;-73
2023/02/17 07:11:57;;;;;;;3.47;2.50;;;9.30;99.90;;;;;;5112180;28;20587;-72
2023/02/17 07:14:25;;;;;;;2.20;1.95;;;9.30;99.90;;;;;;5111117;28;20747;-73
2023/02/17 07:16:52;;;;;;;2.70;2.28;;;9.30;99.90;;;;;;5111877;28;20623;-73
2023/02/17 07:19:20;;;;;;;2.88;1.92;;;9.30;99.90;;;;;;5111795;28;20199;-72
2023/02/17 07:21:46;;;;;;;4.43;2.70;;;9.30;99.90;;;;;;5112198;28;20619;-73
2023/02/17 07:24:13;;;;;;;4.15;2.55;;;9.40;99.90;;;;;;5111988;28;20203;-73
2023/02/17 07:26:41;;;;;;;2.72;2.38;;;9.40;99.90;;;;;;5111736;28;20226;-73
2023/02/17 07:29:07;;;;;;;3.67;2.35;;;9.40;99.90;;;;;;5111538;28;20665;-72
2023/02/17 07:31:35;;;;;;;2.03;1.75;;;9.50;99.90;;;;;;5111703;28;20223;-72
2023/02/17 07:34:04;;;;;;;2.72;2.45;;;9.40;99.90;;;;;;5112054;28;20203;-74
2023/02/17 07:36:32;;;;;;;4.10;2.42;;;9.50;99.90;;;;;;5111358;28;20276;-74
2023/02/17 07:38:59;;;;;;;4.22;2.30;;;9.50;99.90;;;;;;5103016;28;20232;-74
2023/02/17 07:41:27;;;;;;;2.20;2.00;;;9.60;99.90;;;;;;5102485;28;20203;-73
2023/02/17 07:43:55;;;;;;;3.15;2.55;;;9.60;99.90;;;;;;5111496;28;20252;-74
2023/02/17 07:46:23;;;;;;;2.33;2.13;;;9.50;99.90;;;;;;5102086;28;20219;-72
2023/02/17 07:48:49;;;;;;;2.90;2.47;;;9.60;99.90;;;;;;5111660;28;20214;-72
2023/02/17 07:51:19;;;;;;;2.30;2.10;;;9.60;99.90;;;;;;5111136;28;20199;-72
2023/02/17 07:53:48;;;;;;;2.08;1.85;;;9.70;99.90;;;;;;5111119;28;20207;-72
2023/02/17 07:56:17;;;;;;;2.10;1.90;;;9.70;99.90;;;;;;5110860;28;20215;-72
2023/02/17 07:58:45;;;;;;;3.60;2.50;;;9.70;99.90;;;;;;5111213;27;20206;-72
2023/02/17 08:01:14;;;;;;;2.65;2.30;;;9.70;99.90;;;;;;5110766;28;20581;-72
2023/02/17 08:03:41;;;;;;;2.58;2.15;;;9.70;99.90;;;;;;5111349;28;20203;-73
2023/02/17 08:06:10;;;;;;;3.00;2.22;;;9.70;99.90;;;;;;5111254;28;20199;-72
2023/02/17 08:14:06;;;;;;;2.40;2.10;;;9.90;99.90;;;;;;5111008;28;20268;-72
2023/02/17 08:16:33;;;;;;;2.30;2.10;;;9.90;99.90;;;;;;5110163;28;20225;-73
2023/02/17 08:18:59;;;;;;;3.63;2.05;;;9.90;99.90;;;;;;5110788;27;20556;-72
2023/02/17 08:21:27;;;;;;;4.15;1.90;;;10.00;99.90;;;;;;5110129;28;20205;-72
2023/02/17 08:23:54;;;;;;;3.65;2.22;;;10.10;99.90;;;;;;5110696;28;20210;-73
2023/02/17 08:26:22;;;;;;;3.28;2.22;;;10.20;99.90;;;;;;5109647;28;20634;-72
2023/02/17 08:28:50;;;;;;;3.58;2.40;;;10.40;99.90;;;;;;5110737;28;20207;-72
2023/02/17 08:31:18;;;;;;;4.45;2.20;;;10.90;99.90;;;;;;5110063;28;20206;-71
2023/02/17 08:33:45;;;;;;;2.20;2.00;;;11.50;99.90;;;;;;5110537;28;20578;-72
2023/02/17 08:36:12;;;;;;;2.97;2.00;;;11.80;99.90;;;;;;5110098;28;20210;-72
2023/02/17 08:38:39;;;;;;;2.47;1.63;;;12.10;99.90;;;;;;5110098;28;20198;-72
2023/02/17 08:41:13;;;;;;;2.35;1.63;;;12.00;99.90;;;;;;5104168;28;20200;-71
2023/02/17 08:43:42;;;;;;;2.23;1.90;;;12.00;99.90;;;;;;5109261;28;20283;-72
2023/02/17 08:46:10;;;;;;;2.42;2.08;;;11.90;99.90;;;;;;5109774;28;20460;-71
2023/02/17 08:48:37;;;;;;;3.00;1.67;;;11.80;99.90;;;;;;5108311;28;20244;-71
2023/02/17 08:51:05;;;;;;;2.40;1.95;;;11.60;99.90;;;;;;5104468;28;20601;-72
2023/02/17 08:53:31;;;;;;;2.42;2.10;;;11.60;99.90;;;;;;5110080;28;20241;-72
2023/02/17 08:55:58;;;;;;;3.20;2.43;;;11.80;99.90;;;;;;5110000;28;20207;-72
2023/02/17 08:58:25;;;;;;;1.85;1.75;;;12.00;99.90;;;;;;5109437;28;20461;-73
2023/02/17 09:00:53;;;;;;;2.38;2.00;;;12.00;99.90;;;;;;5097845;28;20200;-72
2023/02/17 09:03:20;;;;;;;2.60;1.55;;;11.80;99.90;;;;;;5106824;28;20191;-72
2023/02/17 09:05:47;;;;;;;1.88;1.75;;;11.60;99.90;;;;;;5110343;28;20794;-71
2023/02/17 09:08:13;;;;;;;2.00;1.45;;;11.50;99.90;;;;;;5104781;28;20219;-72
2023/02/17 09:10:40;;;;;;;4.25;2.03;;;11.20;99.90;;;;;;5096204;28;20810;-71
2023/02/17 09:13:07;;;;;;;1.80;1.70;;;11.10;99.90;;;;;;5108356;28;20215;-72
2023/02/17 09:15:33;;;;;;;2.63;1.73;;;11.00;99.90;;;;;;5108328;28;20210;-72
2023/02/17 09:18:02;;;;;;;2.90;2.00;;;11.00;99.90;;;;;;5108531;28;20227;-72
2023/02/17 09:20:29;;;;;;;2.72;2.05;;;10.90;99.90;;;;;;5108154;28;20199;-72
2023/02/17 09:22:55;;;;;;;3.10;2.17;;;10.80;99.90;;;;;;5108031;28;20211;-72
2023/02/17 09:25:22;;;;;;;2.40;2.20;;;10.60;99.90;;;;;;5108122;28;20426;-72
2023/02/17 09:27:49;;;;;;;2.80;1.90;;;10.50;99.90;;;;;;5099764;28;20227;-72
2023/02/17 09:30:16;;;;;;;1.65;1.55;;;10.50;99.90;;;;;;5097221;28;20248;-73
2023/02/17 09:32:43;;;;;;;6.65;2.08;;;10.50;99.90;;;;;;5109706;28;20215;-73
2023/02/17 09:35:12;;;;;;;2.42;2.22;;;10.50;99.90;;;;;;5110240;28;20210;-72
2023/02/17 09:37:39;;;;;;;1.50;1.27;;;10.50;99.90;;;;;;5110539;28;20222;-72
2023/02/17 09:40:07;;;;;;;2.00;1.80;;;10.60;99.90;;;;;;5113598;28;20199;-72
2023/02/17 09:42:39;;;;;;;2.20;2.00;;;10.70;99.90;;;;;;5113411;27;20285;-72
2023/02/17 09:45:11;;;;;;;2.95;2.60;;;10.70;99.90;;;;;;5113807;28;20203;-72
2023/02/17 09:47:40;;;;;;;2.50;1.80;;;10.90;99.90;;;;;;5112995;28;20336;-72
2023/02/17 09:50:14;;;;;;;2.28;1.85;;;11.00;99.90;;;;;;5113693;28;20199;-71
2023/02/17 09:52:47;;;;;;;2.65;1.60;;;11.00;99.90;;;;;;5113053;28;20219;-72
2023/02/17 09:55:18;;;;;;;2.53;1.73;;;11.10;99.90;;;;;;5112810;27;20663;-72
2023/02/17 09:57:53;;;;;;;2.95;2.13;;;11.40;99.90;;;;;;5113314;28;20697;-72
2023/02/17 10:00:25;;;;;;;2.00;1.80;;;11.50;99.90;;;;;;5113052;28;20234;-72
2023/02/17 10:02:59;;;;;;;2.15;1.95;;;12.00;99.90;;;;;;5113460;27;20662;-72
2023/02/17 10:05:34;;;;;;;1.70;1.60;;;13.40;99.90;;;;;;5112860;28;20202;-72
2023/02/17 10:08:06;;;;;;;2.60;1.40;;;14.70;99.90;;;;;;5112878;28;20491;-72
2023/02/17 10:10:40;;;;;;;2.60;1.80;;;15.80;99.90;;;;;;5112838;28;20468;-72
2023/02/17 10:13:08;;;;;;;2.23;2.03;;;17.30;99.90;;;;;;5113367;28;20484;-72
2023/02/17 10:15:38;;;;;;;1.70;1.47;;;18.30;98.70;;;;;;5113065;28;20522;-72
2023/02/17 10:18:11;;;;;;;1.50;1.40;;;19.20;97.50;;;;;;5112688;28;20476;-72
2023/02/17 10:20:42;;;;;;;1.87;1.50;;;20.10;96.10;;;;;;5112583;28;20692;-72
2023/02/17 10:23:15;;;;;;;2.13;1.30;;;19.30;96.30;;;;;;5113048;27;20517;-72
2023/02/17 10:26:00;;;;;;;3.63;1.73;;;18.10;97.30;;;;;;5112925;28;20460;-72
2023/02/17 10:28:37;;;;;;;1.83;1.40;;;17.00;98.60;;;;;;5112321;28;20460;-72
2023/02/17 10:31:09;;;;;;;1.90;1.70;;;16.10;99.60;;;;;;5112738;28;20624;-72
2023/02/17 10:33:37;;;;;;;1.60;1.50;;;16.30;99.90;;;;;;5112371;28;20533;-72
2023/02/17 10:36:19;;;;;;;2.80;1.70;;;17.20;98.60;;;;;;5112394;28;20552;-72
2023/02/17 10:38:51;;;;;;;1.80;1.40;;;16.70;99.00;;;;;;5112683;28;20464;-72
2023/02/17 10:41:21;;;;;;;1.40;1.30;;;16.50;99.50;;;;;;5112391;28;20547;-72
2023/02/17 10:43:50;;;;;;;2.37;1.70;;;16.20;99.90;;;;;;5112282;28;20460;-72
2023/02/17 10:46:23;;;;;;;1.83;1.53;;;16.80;99.30;;;;;;5112070;28;20477;-72
2023/02/17 10:48:52;;;;;;;1.93;1.40;;;18.20;98.80;;;;;;5112234;28;20972;-72
2023/02/17 10:51:23;;;;;;;2.10;1.40;;;19.50;96.60;;;;;;5112226;28;20878;-73
2023/02/17 10:53:53;;;;;;;1.40;1.30;;;19.60;96.20;;;;;;5112527;28;20483;-72
2023/02/17 10:56:24;;;;;;;2.13;1.77;;;18.30;97.10;;;;;;5111725;28;20534;-72
2023/02/17 10:58:55;;;;;;;1.60;1.30;;;17.30;98.20;;;;;;5112473;28;20959;-72
2023/02/17 11:01:22;;;;;;;1.60;1.20;;;16.40;99.30;;;;;;5112097;28;20456;-73
2023/02/17 11:03:59;;;;;;;1.77;1.00;;;15.60;99.90;;;;;;5112310;28;21019;-72
2023/02/17 11:06:29;;;;;;;1.53;1.30;;;15.00;99.90;;;;;;5111331;28;20519;-72
2023/02/17 11:09:00;;;;;;;1.63;1.43;;;14.60;99.90;;;;;;5112435;28;20497;-72
2023/02/17 11:11:29;;;;;;;1.40;1.30;;;14.30;99.90;;;;;;5111478;28;20465;-72
2023/02/17 11:14:09;;;;;;;2.00;1.53;;;14.10;99.90;;;;;;5111988;28;20492;-73
2023/02/17 11:16:38;;;;;;;3.10;1.60;;;14.10;99.90;;;;;;5111196;28;20492;-72
2023/02/17 11:19:05;;;;;;;1.27;1.17;;;14.20;99.90;;;;;;5111945;28;20460;-72
2023/02/17 11:21:35;;;;;;;2.00;1.40;;;14.10;99.90;;;;;;5111724;28;20453;-72
2023/02/17 11:24:04;;;;;;;2.40;1.50;;;14.10;99.90;;;;;;5111714;28;21024;-72
2023/02/17 11:26:33;;;;;;;1.20;1.10;;;14.10;99.90;;;;;;5111362;28;20480;-73
2023/02/17 11:29:11;;;;;;;1.40;1.30;;;14.10;99.90;;;;;;5111673;28;20456;-73
2023/02/17 11:31:37;;;;;;;1.73;1.20;;;14.10;99.90;;;;;;5111346;28;20468;-72
2023/02/17 11:34:15;;;;;;;1.27;1.17;;;14.20;99.90;;;;;;5111429;28;20888;-72
2023/02/17 11:36:45;;;;;;;1.40;1.03;;;14.10;99.90;;;;;;5111158;28;20499;-73
2023/02/17 11:39:20;;;;;;;1.40;1.30;;;14.20;99.90;;;;;;5109860;28;20460;-73
2023/02/17 11:41:48;;;;;;;1.10;1.00;;;14.20;99.90;;;;;;5096143;28;21009;-73
2023/02/17 11:44:23;;;;;;;1.30;1.20;;;14.10;99.90;;;;;;5098111;28;20453;-72
2023/02/17 11:46:57;;;;;;;1.20;1.00;;;13.70;99.90;;;;;;5103412;28;21044;-72
2023/02/17 11:49:50;;;;;;;2.03;1.73;;;13.70;99.90;;;;;;5097553;28;20872;-73
2023/02/17 11:52:37;;;;;;;1.40;1.17;;;13.80;99.90;;;;;;5090013;28;20930;-72
2023/02/17 11:55:27;;;;;;;1.23;0.97;;;13.60;99.90;;;;;;5099845;28;20840;-73
2023/02/17 11:58:06;;;;;;;1.20;1.07;;;13.40;99.90;;;;;;5107151;28;20529;-72
2023/02/17 12:00:42;;;;;;;1.33;1.07;;;13.30;99.90;;;;;;5109558;28;20469;-72
2023/02/17 12:03:38;;;;;;;1.20;1.03;;;13.30;99.90;;;;;;5110180;28;20455;-73
2023/02/17 12:06:11;;;;;;;1.37;1.00;;;13.10;99.90;;;;;;5109909;28;20457;-72
2023/02/17 12:08:51;;;;;;;1.67;1.10;;;12.90;99.90;;;;;;5100296;28;20466;-72
2023/02/17 12:11:26;;;;;;;1.33;1.23;;;13.00;99.90;;;;;;5104268;28;20456;-72
2023/02/17 12:14:06;;;;;;;3.27;1.10;;;13.10;99.90;;;;;;5110054;28;20472;-72
2023/02/17 12:16:45;;;;;;;1.50;1.23;;;13.10;99.90;;;;;;5110221;28;20995;-72
2023/02/17 12:19:26;;;;;;;2.10;1.30;;;13.10;99.90;;;;;;5110960;28;20484;-72
2023/02/17 12:22:01;;;;;;;1.33;1.23;;;13.10;99.90;;;;;;5091492;28;20975;-72
2023/02/17 12:24:47;;;;;;;1.30;1.00;;;13.10;99.90;;;;;;5107982;28;20460;-72
2023/02/17 12:27:26;;;;;;;1.10;1.00;;;13.10;99.90;;;;;;5110275;28;20686;-72
2023/02/17 12:30:13;;;;;;;1.10;1.00;;;13.00;99.90;;;;;;5110573;28;20456;-72
2023/02/17 12:32:54;;;;;;;1.80;1.30;;;13.10;99.90;;;;;;5110602;28;20821;-73
2023/02/17 12:35:23;;;;;;;2.50;1.20;;;13.10;99.90;;;;;;5111021;28;20872;-72
2023/02/17 12:37:54;;;;;;;1.87;0.90;;;13.10;99.90;;;;;;5110469;28;20480;-72
2023/02/17 12:40:36;;;;;;;1.27;1.03;;;13.10;99.90;;;;;;5110491;28;20456;-73
2023/02/17 12:43:15;;;;;;;1.70;1.00;;;13.10;99.90;;;;;;5110157;28;20958;-72
2023/02/17 12:45:44;;;;;;;2.27;1.60;;;13.10;99.90;;;;;;5110646;28;20525;-72
2023/02/17 12:48:17;;;;;;;1.57;1.10;;;13.10;99.90;;;;;;5110401;28;20477;-72
2023/02/17 12:50:52;;;;;;;0.97;0.87;;;12.90;99.90;;;;;;5110115;28;20812;-73
2023/02/17 12:53:26;;;;;;;1.23;1.13;;;12.90;99.90;;;;;;5110179;28;20473;-72
2023/02/17 12:55:58;;;;;;;1.73;1.40;;;12.90;99.90;;;;;;5110658;28;20771;-72
2023/02/17 12:58:27;;;;;;;1.93;1.20;;;13.00;99.90;;;;;;5109732;28;20456;-72
2023/02/17 13:01:00;;;;;;;1.27;1.17;;;13.10;99.90;;;;;;5110014;28;20465;-72
2023/02/17 13:03:29;;;;;;;2.40;1.37;;;13.00;99.90;;;;;;5109711;28;20503;-72
2023/02/17 13:06:02;;;;;;;1.13;1.03;;;13.00;99.90;;;;;;5108067;28;20457;-72
2023/02/17 13:08:35;;;;;;;1.30;1.10;;;13.00;99.90;;;;;;5109887;28;20490;-72
2023/02/17 13:11:06;;;;;;;1.47;1.37;;;13.00;99.90;;;;;;5110074;28;20467;-72